Terminal Aerodrome Forecast
Issued by NWS Bismarck, ND

Home | Current Version | Previous Version | Graphics & Text | Print | Product List | Glossary On
Versions: 1 2 3 4 5 6 7 8 9 10 11 12 13 14 15
000
FTUS43 KBIS 131100
TAFISN
TAF
KISN 131120Z 1312/1412 34006KT P6SM SCT150
     FM131400 33013KT P6SM SKC
     FM131800 33019G27KT P6SM SKC
     FM140200 36008KT P6SM SKC=

USA.gov is the U.S. government's official web portal to all federal, state and local government web resources and services.